sensor_id;sensor_type;location;lat;lon;timestamp;pressure;altitude;pressure_sealevel;temperature;humidity
37170;BME280;23062;13.952;100.608;2023-10-19T00:02:42;1011.90;;;31.34;62.51
37170;BME280;23062;13.952;100.608;2023-10-19T00:07:20;1012.00;;;31.37;62.46
37170;BME280;23062;13.952;100.608;2023-10-19T00:12:04;1011.93;;;31.34;62.63
37170;BME280;23062;13.952;100.608;2023-10-19T00:16:50;1011.97;;;31.35;62.64
37170;BME280;23062;13.952;100.608;2023-10-19T00:21:36;1012.06;;;31.42;62.74
37170;BME280;23062;13.952;100.608;2023-10-19T00:26:23;1012.15;;;31.43;62.94
37170;BME280;23062;13.952;100.608;2023-10-19T00:31:17;1012.18;;;31.42;63.00
37170;BME280;23062;13.952;100.608;2023-10-19T00:35:58;1012.31;;;31.39;62.82
37170;BME280;23062;13.952;100.608;2023-10-19T00:40:54;1012.35;;;31.40;62.92
37170;BME280;23062;13.952;100.608;2023-10-19T00:45:43;1012.28;;;31.39;62.66
37170;BME280;23062;13.952;100.608;2023-10-19T00:50:27;1012.27;;;31.37;61.90
37170;BME280;23062;13.952;100.608;2023-10-19T00:55:14;1012.30;;;31.12;62.73
37170;BME280;23062;13.952;100.608;2023-10-19T01:00:00;1012.24;;;31.11;63.20
37170;BME280;23062;13.952;100.608;2023-10-19T01:04:58;1012.27;;;31.17;63.40
37170;BME280;23062;13.952;100.608;2023-10-19T01:09:42;1012.28;;;31.19;63.65
37170;BME280;23062;13.952;100.608;2023-10-19T01:14:27;1012.27;;;31.26;64.14
37170;BME280;23062;13.952;100.608;2023-10-19T01:19:10;1012.42;;;31.13;64.90
37170;BME280;23062;13.952;100.608;2023-10-19T01:23:53;1012.46;;;31.15;64.79
37170;BME280;23062;13.952;100.608;2023-10-19T01:28:37;1012.49;;;31.19;65.06
37170;BME280;23062;13.952;100.608;2023-10-19T01:33:26;1012.57;;;31.29;64.73
37170;BME280;23062;13.952;100.608;2023-10-19T01:38:12;1012.61;;;31.25;65.19
37170;BME280;23062;13.952;100.608;2023-10-19T01:42:56;1012.73;;;31.16;64.54
37170;BME280;23062;13.952;100.608;2023-10-19T01:47:36;1012.74;;;31.28;64.50
37170;BME280;23062;13.952;100.608;2023-10-19T01:52:21;1012.81;;;31.31;63.71
37170;BME280;23062;13.952;100.608;2023-10-19T01:57:03;1012.90;;;31.32;64.02
37170;BME280;23062;13.952;100.608;2023-10-19T02:01:45;1012.96;;;31.36;64.86
37170;BME280;23062;13.952;100.608;2023-10-19T02:06:30;1013.02;;;31.34;64.68
37170;BME280;23062;13.952;100.608;2023-10-19T02:11:22;1013.04;;;31.38;64.66
37170;BME280;23062;13.952;100.608;2023-10-19T02:16:05;1013.08;;;31.45;64.23
37170;BME280;23062;13.952;100.608;2023-10-19T02:20:49;1013.04;;;31.43;64.45
37170;BME280;23062;13.952;100.608;2023-10-19T02:25:35;1013.09;;;31.42;64.30
37170;BME280;23062;13.952;100.608;2023-10-19T02:30:20;1013.10;;;31.42;64.30
37170;BME280;23062;13.952;100.608;2023-10-19T02:35:06;1013.05;;;31.26;65.46
37170;BME280;23062;13.952;100.608;2023-10-19T02:39:53;1013.07;;;31.26;65.62
37170;BME280;23062;13.952;100.608;2023-10-19T02:44:29;1013.11;;;31.30;65.52
37170;BME280;23062;13.952;100.608;2023-10-19T02:49:08;1013.13;;;31.41;65.56
37170;BME280;23062;13.952;100.608;2023-10-19T02:53:50;1013.16;;;31.44;65.91
37170;BME280;23062;13.952;100.608;2023-10-19T02:58:33;1013.14;;;31.48;65.93
37170;BME280;23062;13.952;100.608;2023-10-19T03:03:17;1013.10;;;31.54;65.71
37170;BME280;23062;13.952;100.608;2023-10-19T03:08:04;1013.06;;;31.57;65.80
37170;BME280;23062;13.952;100.608;2023-10-19T03:12:48;1013.02;;;31.58;65.98
37170;BME280;23062;13.952;100.608;2023-10-19T03:17:31;1012.99;;;31.57;66.27
37170;BME280;23062;13.952;100.608;2023-10-19T03:22:14;1012.86;;;31.65;65.55
37170;BME280;23062;13.952;100.608;2023-10-19T03:27:00;1012.85;;;31.64;65.71
37170;BME280;23062;13.952;100.608;2023-10-19T03:31:48;1012.70;;;31.73;65.29
37170;BME280;23062;13.952;100.608;2023-10-19T03:36:25;1012.68;;;31.71;65.33
37170;BME280;23062;13.952;100.608;2023-10-19T03:41:11;1012.61;;;31.74;65.30
37170;BME280;23062;13.952;100.608;2023-10-19T03:45:55;1012.54;;;31.81;65.15
37170;BME280;23062;13.952;100.608;2023-10-19T03:50:34;1012.52;;;31.84;65.15
37170;BME280;23062;13.952;100.608;2023-10-19T03:55:20;1012.49;;;31.85;65.21
37170;BME280;23062;13.952;100.608;2023-10-19T03:59:57;1012.43;;;31.88;64.91
37170;BME280;23062;13.952;100.608;2023-10-19T04:04:37;1012.37;;;31.95;64.53
37170;BME280;23062;13.952;100.608;2023-10-19T04:09:23;1012.29;;;31.90;64.64
37170;BME280;23062;13.952;100.608;2023-10-19T04:14:02;1012.23;;;31.98;63.73
37170;BME280;23062;13.952;100.608;2023-10-19T04:18:46;1012.13;;;32.04;62.73
37170;BME280;23062;13.952;100.608;2023-10-19T04:23:31;1012.01;;;32.09;62.11
37170;BME280;23062;13.952;100.608;2023-10-19T04:28:17;1011.90;;;32.03;62.74
37170;BME280;23062;13.952;100.608;2023-10-19T04:33:04;1011.78;;;32.04;62.52
37170;BME280;23062;13.952;100.608;2023-10-19T04:37:44;1011.68;;;32.12;61.57
37170;BME280;23062;13.952;100.608;2023-10-19T04:42:29;1011.63;;;32.03;62.69
37170;BME280;23062;13.952;100.608;2023-10-19T04:47:13;1011.64;;;32.18;61.56
37170;BME280;23062;13.952;100.608;2023-10-19T04:51:58;1011.54;;;32.24;61.00
37170;BME280;23062;13.952;100.608;2023-10-19T04:56:43;1011.46;;;32.30;62.96
37170;BME280;23062;13.952;100.608;2023-10-19T05:01:26;1011.36;;;32.24;63.20
37170;BME280;23062;13.952;100.608;2023-10-19T05:06:07;1011.30;;;32.25;63.10
37170;BME280;23062;13.952;100.608;2023-10-19T05:10:51;1011.25;;;32.21;62.91
37170;BME280;23062;13.952;100.608;2023-10-19T05:15:37;1011.19;;;32.21;62.65
37170;BME280;23062;13.952;100.608;2023-10-19T05:20:20;1011.09;;;32.24;61.79
37170;BME280;23062;13.952;100.608;2023-10-19T05:25:04;1010.99;;;32.22;62.19
37170;BME280;23062;13.952;100.608;2023-10-19T05:29:51;1010.90;;;32.21;62.34
37170;BME280;23062;13.952;100.608;2023-10-19T05:34:36;1010.85;;;32.20;62.73
37170;BME280;23062;13.952;100.608;2023-10-19T05:39:21;1010.79;;;32.13;64.09
37170;BME280;23062;13.952;100.608;2023-10-19T05:44:05;1010.69;;;32.17;64.15
37170;BME280;23062;13.952;100.608;2023-10-19T05:48:44;1010.63;;;32.15;64.79
37170;BME280;23062;13.952;100.608;2023-10-19T05:53:23;1010.54;;;32.18;64.13
37170;BME280;23062;13.952;100.608;2023-10-19T05:58:11;1010.52;;;32.18;64.30
37170;BME280;23062;13.952;100.608;2023-10-19T06:02:54;1010.41;;;32.20;62.91
37170;BME280;23062;13.952;100.608;2023-10-19T06:07:39;1010.45;;;32.18;63.21
37170;BME280;23062;13.952;100.608;2023-10-19T06:12:21;1010.31;;;32.00;64.78
37170;BME280;23062;13.952;100.608;2023-10-19T06:16:59;1010.28;;;32.02;65.18
37170;BME280;23062;13.952;100.608;2023-10-19T06:21:44;1010.32;;;32.00;65.18
37170;BME280;23062;13.952;100.608;2023-10-19T06:26:30;1010.33;;;32.01;65.22
37170;BME280;23062;13.952;100.608;2023-10-19T06:31:15;1010.27;;;31.97;65.28
37170;BME280;23062;13.952;100.608;2023-10-19T06:35:53;1010.19;;;31.99;65.26
37170;BME280;23062;13.952;100.608;2023-10-19T06:40:34;1010.18;;;31.97;65.37
37170;BME280;23062;13.952;100.608;2023-10-19T06:45:20;1010.22;;;31.96;65.61
37170;BME280;23062;13.952;100.608;2023-10-19T06:50:02;1010.17;;;31.91;65.86
37170;BME280;23062;13.952;100.608;2023-10-19T06:54:44;1010.13;;;31.89;66.25
37170;BME280;23062;13.952;100.608;2023-10-19T06:59:26;1010.06;;;31.89;66.43
37170;BME280;23062;13.952;100.608;2023-10-19T07:04:19;1010.16;;;31.86;67.51
37170;BME280;23062;13.952;100.608;2023-10-19T07:09:03;1010.30;;;31.89;70.56
37170;BME280;23062;13.952;100.608;2023-10-19T07:13:44;1010.12;;;31.76;73.82
37170;BME280;23062;13.952;100.608;2023-10-19T07:18:25;1010.08;;;31.64;75.25
37170;BME280;23062;13.952;100.608;2023-10-19T07:23:11;1010.05;;;31.27;71.32
37170;BME280;23062;13.952;100.608;2023-10-19T07:27:53;1009.92;;;31.37;72.06
37170;BME280;23062;13.952;100.608;2023-10-19T07:32:36;1009.79;;;31.19;72.19
37170;BME280;23062;13.952;100.608;2023-10-19T07:37:21;1009.69;;;31.08;72.57
37170;BME280;23062;13.952;100.608;2023-10-19T07:42:09;1009.57;;;31.13;72.48
37170;BME280;23062;13.952;100.608;2023-10-19T07:46:55;1009.47;;;31.06;74.02
37170;BME280;23062;13.952;100.608;2023-10-19T07:51:38;1009.36;;;31.17;73.71
37170;BME280;23062;13.952;100.608;2023-10-19T07:56:15;1009.36;;;31.21;75.11
37170;BME280;23062;13.952;100.608;2023-10-19T08:01:00;1009.32;;;31.23;76.02
37170;BME280;23062;13.952;100.608;2023-10-19T08:05:45;1009.23;;;31.28;76.66
37170;BME280;23062;13.952;100.608;2023-10-19T08:10:28;1009.15;;;31.28;77.25
37170;BME280;23062;13.952;100.608;2023-10-19T08:15:16;1009.12;;;31.31;77.05
37170;BME280;23062;13.952;100.608;2023-10-19T08:19:58;1009.19;;;31.33;76.32
37170;BME280;23062;13.952;100.608;2023-10-19T08:24:43;1009.25;;;31.31;76.87
37170;BME280;23062;13.952;100.608;2023-10-19T08:29:29;1009.27;;;31.29;77.42
37170;BME280;23062;13.952;100.608;2023-10-19T08:34:14;1009.26;;;31.27;78.05
37170;BME280;23062;13.952;100.608;2023-10-19T08:38:58;1009.24;;;31.36;77.79
37170;BME280;23062;13.952;100.608;2023-10-19T08:43:44;1009.32;;;31.33;78.61
37170;BME280;23062;13.952;100.608;2023-10-19T08:48:35;1009.29;;;31.32;79.52
37170;BME280;23062;13.952;100.608;2023-10-19T08:53:22;1009.29;;;31.35;78.75
37170;BME280;23062;13.952;100.608;2023-10-19T08:58:06;1009.37;;;31.42;78.74
37170;BME280;23062;13.952;100.608;2023-10-19T09:02:52;1009.33;;;31.46;78.47
37170;BME280;23062;13.952;100.608;2023-10-19T09:07:36;1009.35;;;31.44;77.72
37170;BME280;23062;13.952;100.608;2023-10-19T09:12:20;1009.40;;;31.45;76.84
37170;BME280;23062;13.952;100.608;2023-10-19T09:17:04;1009.40;;;31.49;76.28
37170;BME280;23062;13.952;100.608;2023-10-19T09:21:42;1009.49;;;31.51;75.60
37170;BME280;23062;13.952;100.608;2023-10-19T09:26:29;1009.47;;;31.44;75.35
37170;BME280;23062;13.952;100.608;2023-10-19T09:31:14;1009.39;;;31.44;75.28
37170;BME280;23062;13.952;100.608;2023-10-19T09:35:55;1009.30;;;31.46;74.82
37170;BME280;23062;13.952;100.608;2023-10-19T09:40:41;1009.16;;;31.44;74.64
37170;BME280;23062;13.952;100.608;2023-10-19T09:45:27;1009.31;;;31.43;74.12
37170;BME280;23062;13.952;100.608;2023-10-19T09:50:11;1009.37;;;31.37;72.94
37170;BME280;23062;13.952;100.608;2023-10-19T09:55:11;1009.43;;;31.34;72.60
37170;BME280;23062;13.952;100.608;2023-10-19T09:59:56;1009.44;;;31.36;72.32
37170;BME280;23062;13.952;100.608;2023-10-19T10:04:33;1009.41;;;31.38;72.03
37170;BME280;23062;13.952;100.608;2023-10-19T10:09:19;1009.41;;;31.37;71.79
37170;BME280;23062;13.952;100.608;2023-10-19T10:14:19;1009.50;;;31.41;71.82
37170;BME280;23062;13.952;100.608;2023-10-19T10:18:55;1009.52;;;31.35;71.69
37170;BME280;23062;13.952;100.608;2023-10-19T10:23:43;1009.57;;;31.38;71.69
37170;BME280;23062;13.952;100.608;2023-10-19T10:28:25;1009.61;;;31.39;71.68
37170;BME280;23062;13.952;100.608;2023-10-19T10:33:11;1009.60;;;31.40;71.87
37170;BME280;23062;13.952;100.608;2023-10-19T10:37:58;1009.54;;;31.46;71.89
37170;BME280;23062;13.952;100.608;2023-10-19T10:42:42;1009.62;;;31.51;72.05
37170;BME280;23062;13.952;100.608;2023-10-19T10:47:27;1009.55;;;31.41;72.52
37170;BME280;23062;13.952;100.608;2023-10-19T10:57:07;1009.59;;;31.36;73.25
37170;BME280;23062;13.952;100.608;2023-10-19T11:01:53;1009.70;;;31.40;73.90
37170;BME280;23062;13.952;100.608;2023-10-19T11:11:37;1009.80;;;31.35;74.31
37170;BME280;23062;13.952;100.608;2023-10-19T11:16:22;1009.90;;;31.36;74.22
37170;BME280;23062;13.952;100.608;2023-10-19T11:21:00;1010.03;;;31.35;74.25
37170;BME280;23062;13.952;100.608;2023-10-19T11:25:42;1010.24;;;31.29;74.65
37170;BME280;23062;13.952;100.608;2023-10-19T11:30:28;1010.19;;;31.16;74.42
37170;BME280;23062;13.952;100.608;2023-10-19T11:35:11;1010.20;;;31.22;74.16
37170;BME280;23062;13.952;100.608;2023-10-19T11:39:54;1010.24;;;31.19;74.99
37170;BME280;23062;13.952;100.608;2023-10-19T11:44:39;1010.38;;;31.29;75.37
37170;BME280;23062;13.952;100.608;2023-10-19T11:49:24;1010.51;;;31.26;75.14
37170;BME280;23062;13.952;100.608;2023-10-19T11:54:01;1010.55;;;31.27;74.71
37170;BME280;23062;13.952;100.608;2023-10-19T11:58:39;1010.62;;;31.23;74.80
37170;BME280;23062;13.952;100.608;2023-10-19T12:03:25;1010.66;;;31.20;74.80
37170;BME280;23062;13.952;100.608;2023-10-19T12:08:08;1010.75;;;31.17;74.38
37170;BME280;23062;13.952;100.608;2023-10-19T12:12:54;1010.81;;;31.14;74.37
37170;BME280;23062;13.952;100.608;2023-10-19T12:17:42;1010.82;;;31.16;74.23
37170;BME280;23062;13.952;100.608;2023-10-19T12:22:19;1010.91;;;31.32;73.99
37170;BME280;23062;13.952;100.608;2023-10-19T12:27:01;1011.00;;;31.29;74.29
37170;BME280;23062;13.952;100.608;2023-10-19T12:31:51;1011.03;;;31.27;75.04
37170;BME280;23062;13.952;100.608;2023-10-19T12:36:29;1011.11;;;31.29;75.29
37170;BME280;23062;13.952;100.608;2023-10-19T12:41:10;1011.20;;;31.32;75.26
37170;BME280;23062;13.952;100.608;2023-10-19T12:45:58;1011.22;;;31.18;75.88
37170;BME280;23062;13.952;100.608;2023-10-19T12:50:46;1011.30;;;31.16;75.78
37170;BME280;23062;13.952;100.608;2023-10-19T12:55:27;1011.27;;;31.27;75.33
37170;BME280;23062;13.952;100.608;2023-10-19T13:00:15;1011.35;;;31.24;74.56
37170;BME280;23062;13.952;100.608;2023-10-19T13:05:17;1011.48;;;31.29;74.70
37170;BME280;23062;13.952;100.608;2023-10-19T13:10:06;1011.44;;;31.29;74.91
37170;BME280;23062;13.952;100.608;2023-10-19T13:14:53;1011.55;;;31.53;74.00
37170;BME280;23062;13.952;100.608;2023-10-19T13:19:41;1011.68;;;31.71;73.09
37170;BME280;23062;13.952;100.608;2023-10-19T13:24:28;1011.70;;;31.79;72.60
37170;BME280;23062;13.952;100.608;2023-10-19T13:29:17;1011.69;;;31.82;72.40
37170;BME280;23062;13.952;100.608;2023-10-19T13:34:02;1011.69;;;31.85;72.26
37170;BME280;23062;13.952;100.608;2023-10-19T13:38:50;1011.64;;;31.85;72.28
37170;BME280;23062;13.952;100.608;2023-10-19T13:43:36;1011.67;;;31.86;72.11
37170;BME280;23062;13.952;100.608;2023-10-19T13:48:23;1011.70;;;31.87;72.24
37170;BME280;23062;13.952;100.608;2023-10-19T13:53:10;1011.69;;;31.87;72.26
37170;BME280;23062;13.952;100.608;2023-10-19T13:57:51;1011.64;;;31.89;72.33
37170;BME280;23062;13.952;100.608;2023-10-19T14:02:37;1011.64;;;31.88;72.25
37170;BME280;23062;13.952;100.608;2023-10-19T14:07:27;1011.57;;;31.87;72.40
37170;BME280;23062;13.952;100.608;2023-10-19T14:12:07;1011.54;;;31.90;72.33
37170;BME280;23062;13.952;100.608;2023-10-19T14:16:54;1011.53;;;31.89;72.46
37170;BME280;23062;13.952;100.608;2023-10-19T14:21:40;1011.48;;;31.90;72.45
37170;BME280;23062;13.952;100.608;2023-10-19T14:26:28;1011.52;;;31.91;72.35
37170;BME280;23062;13.952;100.608;2023-10-19T14:31:17;1011.49;;;31.91;72.49
37170;BME280;23062;13.952;100.608;2023-10-19T14:36:04;1011.53;;;31.89;72.54
37170;BME280;23062;13.952;100.608;2023-10-19T14:40:43;1011.64;;;31.91;72.49
37170;BME280;23062;13.952;100.608;2023-10-19T14:45:26;1011.70;;;31.92;72.64
37170;BME280;23062;13.952;100.608;2023-10-19T14:50:14;1011.81;;;31.92;72.63
37170;BME280;23062;13.952;100.608;2023-10-19T14:54:57;1011.89;;;31.91;72.83
37170;BME280;23062;13.952;100.608;2023-10-19T14:59:42;1011.98;;;31.91;72.88
37170;BME280;23062;13.952;100.608;2023-10-19T15:04:28;1012.05;;;31.90;72.75
37170;BME280;23062;13.952;100.608;2023-10-19T15:09:06;1011.98;;;31.91;72.99
37170;BME280;23062;13.952;100.608;2023-10-19T15:13:51;1012.07;;;31.90;72.93
37170;BME280;23062;13.952;100.608;2023-10-19T15:18:35;1012.11;;;31.91;73.15
37170;BME280;23062;13.952;100.608;2023-10-19T15:23:20;1012.15;;;31.92;72.98
37170;BME280;23062;13.952;100.608;2023-10-19T15:28:03;1012.14;;;31.90;73.16
37170;BME280;23062;13.952;100.608;2023-10-19T15:32:49;1012.12;;;31.90;71.37
37170;BME280;23062;13.952;100.608;2023-10-19T15:37:36;1012.11;;;31.93;71.66
37170;BME280;23062;13.952;100.608;2023-10-19T15:42:14;1012.10;;;31.91;72.20
37170;BME280;23062;13.952;100.608;2023-10-19T15:47:00;1012.12;;;31.90;72.21
37170;BME280;23062;13.952;100.608;2023-10-19T15:51:47;1011.97;;;31.90;72.27
37170;BME280;23062;13.952;100.608;2023-10-19T15:56:31;1011.94;;;31.89;72.41
37170;BME280;23062;13.952;100.608;2023-10-19T16:01:15;1011.86;;;31.90;72.38
37170;BME280;23062;13.952;100.608;2023-10-19T16:06:00;1011.93;;;31.90;72.51
37170;BME280;23062;13.952;100.608;2023-10-19T16:10:39;1011.89;;;31.90;72.48
37170;BME280;23062;13.952;100.608;2023-10-19T16:15:25;1011.90;;;31.90;72.50
37170;BME280;23062;13.952;100.608;2023-10-19T16:20:05;1011.93;;;31.89;72.56
37170;BME280;23062;13.952;100.608;2023-10-19T16:24:51;1011.96;;;31.89;72.51
37170;BME280;23062;13.952;100.608;2023-10-19T16:29:29;1012.00;;;31.91;72.38
37170;BME280;23062;13.952;100.608;2023-10-19T16:34:15;1011.97;;;31.89;72.62
37170;BME280;23062;13.952;100.608;2023-10-19T16:39:02;1011.96;;;31.89;72.52
37170;BME280;23062;13.952;100.608;2023-10-19T16:43:44;1011.91;;;31.90;72.45
37170;BME280;23062;13.952;100.608;2023-10-19T16:48:28;1011.84;;;31.88;72.35
37170;BME280;23062;13.952;100.608;2023-10-19T16:53:07;1011.80;;;31.88;72.40
37170;BME280;23062;13.952;100.608;2023-10-19T16:57:52;1011.76;;;31.88;72.30
37170;BME280;23062;13.952;100.608;2023-10-19T17:02:32;1011.83;;;31.88;72.36
37170;BME280;23062;13.952;100.608;2023-10-19T17:07:17;1011.86;;;31.87;72.30
37170;BME280;23062;13.952;100.608;2023-10-19T17:12:01;1011.83;;;31.87;72.31
37170;BME280;23062;13.952;100.608;2023-10-19T17:16:37;1011.81;;;31.88;72.32
37170;BME280;23062;13.952;100.608;2023-10-19T17:21:15;1011.81;;;31.89;72.27
37170;BME280;23062;13.952;100.608;2023-10-19T17:25:51;1011.73;;;31.87;72.30
37170;BME280;23062;13.952;100.608;2023-10-19T17:30:35;1011.72;;;31.88;72.39
37170;BME280;23062;13.952;100.608;2023-10-19T17:35:14;1011.76;;;31.86;72.35
37170;BME280;23062;13.952;100.608;2023-10-19T17:39:59;1011.75;;;31.85;72.37
37170;BME280;23062;13.952;100.608;2023-10-19T17:44:36;1011.70;;;31.87;72.42
37170;BME280;23062;13.952;100.608;2023-10-19T17:49:17;1011.64;;;31.85;72.41
37170;BME280;23062;13.952;100.608;2023-10-19T17:54:02;1011.60;;;31.87;72.34
37170;BME280;23062;13.952;100.608;2023-10-19T17:58:48;1011.53;;;31.86;72.35
37170;BME280;23062;13.952;100.608;2023-10-19T18:03:36;1011.47;;;31.85;72.27
37170;BME280;23062;13.952;100.608;2023-10-19T18:08:17;1011.42;;;31.84;72.41
37170;BME280;23062;13.952;100.608;2023-10-19T18:12:55;1011.41;;;31.83;72.28
37170;BME280;23062;13.952;100.608;2023-10-19T18:17:32;1011.29;;;31.84;72.25
37170;BME280;23062;13.952;100.608;2023-10-19T18:22:09;1011.21;;;31.81;72.28
37170;BME280;23062;13.952;100.608;2023-10-19T18:26:54;1011.25;;;31.81;72.35
37170;BME280;23062;13.952;100.608;2023-10-19T18:31:38;1011.20;;;31.80;72.29
37170;BME280;23062;13.952;100.608;2023-10-19T18:36:25;1011.26;;;31.81;72.36
37170;BME280;23062;13.952;100.608;2023-10-19T18:41:09;1011.21;;;31.81;72.37
37170;BME280;23062;13.952;100.608;2023-10-19T18:46:01;1011.12;;;31.81;72.30
37170;BME280;23062;13.952;100.608;2023-10-19T18:50:59;1011.07;;;31.80;72.37
37170;BME280;23062;13.952;100.608;2023-10-19T18:55:48;1010.99;;;31.82;72.25
37170;BME280;23062;13.952;100.608;2023-10-19T19:00:30;1010.87;;;31.80;72.38
37170;BME280;23062;13.952;100.608;2023-10-19T19:05:12;1010.83;;;31.77;72.42
37170;BME280;23062;13.952;100.608;2023-10-19T19:09:58;1010.82;;;31.79;72.40
37170;BME280;23062;13.952;100.608;2023-10-19T19:14:42;1010.82;;;31.77;72.41
37170;BME280;23062;13.952;100.608;2023-10-19T19:19:24;1010.81;;;31.78;72.23
37170;BME280;23062;13.952;100.608;2023-10-19T19:24:07;1010.74;;;31.78;72.33
37170;BME280;23062;13.952;100.608;2023-10-19T19:28:52;1010.83;;;31.77;72.60
37170;BME280;23062;13.952;100.608;2023-10-19T19:33:34;1010.81;;;31.76;72.67
37170;BME280;23062;13.952;100.608;2023-10-19T19:38:18;1010.86;;;31.75;72.63
37170;BME280;23062;13.952;100.608;2023-10-19T19:42:58;1010.85;;;31.77;72.64
37170;BME280;23062;13.952;100.608;2023-10-19T19:47:42;1010.78;;;31.78;72.51
37170;BME280;23062;13.952;100.608;2023-10-19T19:52:22;1010.77;;;31.77;72.75
37170;BME280;23062;13.952;100.608;2023-10-19T19:57:05;1010.76;;;31.78;72.39
37170;BME280;23062;13.952;100.608;2023-10-19T20:01:44;1010.72;;;31.75;72.71
37170;BME280;23062;13.952;100.608;2023-10-19T20:06:26;1010.71;;;31.76;72.62
37170;BME280;23062;13.952;100.608;2023-10-19T20:11:21;1010.72;;;31.77;72.54
37170;BME280;23062;13.952;100.608;2023-10-19T20:15:58;1010.74;;;31.73;72.75
37170;BME280;23062;13.952;100.608;2023-10-19T20:20:42;1010.82;;;31.74;72.79
37170;BME280;23062;13.952;100.608;2023-10-19T20:25:19;1010.79;;;31.74;72.70
37170;BME280;23062;13.952;100.608;2023-10-19T20:30:03;1010.70;;;31.74;72.64
37170;BME280;23062;13.952;100.608;2023-10-19T20:34:43;1010.72;;;31.73;72.83
37170;BME280;23062;13.952;100.608;2023-10-19T20:39:25;1010.67;;;31.78;72.44
37170;BME280;23062;13.952;100.608;2023-10-19T20:44:07;1010.66;;;31.77;72.80
37170;BME280;23062;13.952;100.608;2023-10-19T20:48:48;1010.66;;;31.78;72.88
37170;BME280;23062;13.952;100.608;2023-10-19T20:53:31;1010.65;;;31.79;72.81
37170;BME280;23062;13.952;100.608;2023-10-19T20:58:09;1010.62;;;31.79;72.88
37170;BME280;23062;13.952;100.608;2023-10-19T21:02:49;1010.58;;;31.78;72.78
37170;BME280;23062;13.952;100.608;2023-10-19T21:07:31;1010.59;;;31.73;73.91
37170;BME280;23062;13.952;100.608;2023-10-19T21:12:12;1010.62;;;31.51;74.96
37170;BME280;23062;13.952;100.608;2023-10-19T21:16:56;1010.61;;;31.19;76.65
37170;BME280;23062;13.952;100.608;2023-10-19T21:21:42;1010.66;;;31.08;76.98
37170;BME280;23062;13.952;100.608;2023-10-19T21:26:27;1010.67;;;30.93;77.36
37170;BME280;23062;13.952;100.608;2023-10-19T21:31:09;1010.73;;;30.94;77.10
37170;BME280;23062;13.952;100.608;2023-10-19T21:35:53;1010.76;;;30.87;77.50
37170;BME280;23062;13.952;100.608;2023-10-19T21:40:45;1010.79;;;30.92;77.95
37170;BME280;23062;13.952;100.608;2023-10-19T21:45:26;1010.77;;;30.69;79.55
37170;BME280;23062;13.952;100.608;2023-10-19T21:50:11;1010.77;;;30.59;79.75
37170;BME280;23062;13.952;100.608;2023-10-19T21:54:48;1010.79;;;30.54;80.25
37170;BME280;23062;13.952;100.608;2023-10-19T21:59:33;1010.80;;;30.63;79.52
37170;BME280;23062;13.952;100.608;2023-10-19T22:04:16;1010.79;;;30.64;79.79
37170;BME280;23062;13.952;100.608;2023-10-19T22:08:52;1010.79;;;30.54;80.40
37170;BME280;23062;13.952;100.608;2023-10-19T22:13:36;1010.75;;;30.22;81.81
37170;BME280;23062;13.952;100.608;2023-10-19T22:18:16;1010.83;;;30.10;83.43
37170;BME280;23062;13.952;100.608;2023-10-19T22:23:00;1010.87;;;30.34;82.12
37170;BME280;23062;13.952;100.608;2023-10-19T22:27:41;1010.94;;;30.31;81.43
37170;BME280;23062;13.952;100.608;2023-10-19T22:32:19;1011.03;;;30.36;80.60
37170;BME280;23062;13.952;100.608;2023-10-19T22:37:04;1011.07;;;30.42;80.37
37170;BME280;23062;13.952;100.608;2023-10-19T22:41:48;1011.12;;;30.36;80.56
37170;BME280;23062;13.952;100.608;2023-10-19T22:46:25;1011.11;;;30.39;80.35
37170;BME280;23062;13.952;100.608;2023-10-19T22:51:01;1011.19;;;30.47;80.37
37170;BME280;23062;13.952;100.608;2023-10-19T22:55:46;1011.18;;;30.66;79.53
37170;BME280;23062;13.952;100.608;2023-10-19T23:00:23;1011.25;;;30.75;78.65
37170;BME280;23062;13.952;100.608;2023-10-19T23:05:08;1011.33;;;30.80;78.13
37170;BME280;23062;13.952;100.608;2023-10-19T23:09:51;1011.40;;;30.84;77.75
37170;BME280;23062;13.952;100.608;2023-10-19T23:14:37;1011.45;;;30.83;77.77
37170;BME280;23062;13.952;100.608;2023-10-19T23:19:22;1011.48;;;30.82;77.83
37170;BME280;23062;13.952;100.608;2023-10-19T23:23:58;1011.54;;;30.83;77.76
37170;BME280;23062;13.952;100.608;2023-10-19T23:28:40;1011.65;;;30.86;77.79
37170;BME280;23062;13.952;100.608;2023-10-19T23:33:24;1011.74;;;30.77;78.31
37170;BME280;23062;13.952;100.608;2023-10-19T23:38:07;1011.81;;;30.86;77.53
37170;BME280;23062;13.952;100.608;2023-10-19T23:42:51;1011.93;;;30.80;78.06
37170;BME280;23062;13.952;100.608;2023-10-19T23:47:28;1011.97;;;30.87;77.94
37170;BME280;23062;13.952;100.608;2023-10-19T23:52:12;1012.03;;;30.87;78.23
37170;BME280;23062;13.952;100.608;2023-10-19T23:56:56;1012.13;;;30.90;78.15
